Time,TemperatureF,DewpointF,PressureIn,WindDirection,WindDirectionDegrees,WindSpeedMPH,WindSpeedGustMPH,Humidity,HourlyPrecipIn,Conditions,Clouds,dailyrainin,SolarRadiationWatts/m^2,SoftwareType,DateUTC
2013-01-30 00:01:00,-9.0,-13.0,-100.00,East,87,0.0,0.0,83,0.00,,,0.00,0.000000,,2013-01-30 09:01:00,
2013-01-30 00:11:00,-9.0,-13.0,-100.00,East,87,0.0,0.0,83,0.00,,,0.00,0.000000,,2013-01-30 09:11:00,
2013-01-30 01:42:00,-6.0,-10.0,-100.00,ESE,112,0.0,0.0,83,-99.99,,,0.00,0.000000,,2013-01-30 10:42:00,
2013-01-30 01:52:00,-6.0,-10.0,-100.00,ESE,112,0.0,0.0,83,-99.99,,,0.00,0.000000,,2013-01-30 10:52:00,
2013-01-30 02:02:00,-6.0,-10.0,-100.00,ESE,112,0.0,0.0,83,-99.99,,,0.00,0.000000,,2013-01-30 11:02:00,
2013-01-30 02:11:00,-6.0,-10.0,-100.00,ESE,112,0.0,0.0,83,-99.99,,,0.00,0.000000,,2013-01-30 11:11:00,
2013-01-30 02:42:00,-6.0,-10.0,-100.00,East,95,0.0,2.0,83,0.00,,,0.00,0.000000,,2013-01-30 11:42:00,
2013-01-30 02:52:00,-6.0,-10.0,-100.00,East,95,0.0,2.0,83,0.00,,,0.00,0.000000,,2013-01-30 11:52:00,
2013-01-30 03:02:00,-6.0,-10.0,-100.00,East,95,0.0,2.0,83,0.00,,,0.00,0.000000,,2013-01-30 12:02:00,
2013-01-30 03:12:00,-6.0,-10.0,-100.00,East,95,0.0,2.0,83,0.00,,,0.00,0.000000,,2013-01-30 12:12:00,
2013-01-30 03:33:00,-7.0,-11.0,-100.00,ESE,104,0.0,1.0,82,0.00,,,0.00,0.000000,,2013-01-30 12:33:00,
2013-01-30 03:43:00,-7.0,-11.0,-100.00,ESE,104,0.0,1.0,82,0.00,,,0.00,0.000000,,2013-01-30 12:43:00,
2013-01-30 04:02:00,-7.0,-11.0,-100.00,ESE,104,0.0,1.0,82,0.00,,,0.00,0.000000,,2013-01-30 13:02:00,
2013-01-30 04:12:00,-7.0,-11.0,-100.00,ESE,104,0.0,1.0,82,0.00,,,0.00,0.000000,,2013-01-30 13:12:00,
2013-01-30 04:43:00,-5.0,-8.0,-100.00,SSE,152,0.0,0.0,85,0.00,,,0.00,0.000000,,2013-01-30 13:43:00,
2013-01-30 04:53:00,-5.0,-8.0,-100.00,SSE,152,0.0,0.0,85,0.00,,,0.00,0.000000,,2013-01-30 13:53:00,
2013-01-30 05:02:00,-5.0,-8.0,-100.00,SSE,152,0.0,0.0,85,0.00,,,0.00,0.000000,,2013-01-30 14:02:00,
2013-01-30 05:11:00,-5.0,-8.0,-100.00,SSE,152,0.0,0.0,85,0.00,,,0.00,0.000000,,2013-01-30 14:11:00,
2013-01-30 05:43:00,-4.0,-8.0,-100.00,ESE,114,0.0,1.0,81,0.00,,,0.00,0.000000,,2013-01-30 14:43:00,
2013-01-30 05:53:00,-4.0,-8.0,-100.00,ESE,114,0.0,1.0,81,0.00,,,0.00,0.000000,,2013-01-30 14:53:00,
2013-01-30 06:03:00,-4.0,-8.0,-100.00,ESE,114,0.0,1.0,81,0.00,,,0.00,0.000000,,2013-01-30 15:03:00,
2013-01-30 06:11:00,-4.0,-8.0,-100.00,ESE,114,0.0,1.0,81,0.00,,,0.00,0.000000,,2013-01-30 15:11:00,
2013-01-30 06:43:00,-3.0,-7.0,-100.00,ESE,119,0.0,1.0,83,0.00,,,0.00,0.000000,,2013-01-30 15:43:00,
2013-01-30 06:53:00,-3.0,-7.0,-100.00,ESE,119,0.0,1.0,83,0.00,,,0.00,0.000000,,2013-01-30 15:53:00,
2013-01-30 07:03:00,-3.0,-7.0,-100.00,ESE,119,0.0,1.0,83,0.00,,,0.00,0.000000,,2013-01-30 16:03:00,
2013-01-30 07:12:00,-3.0,-7.0,-100.00,ESE,119,0.0,1.0,83,0.00,,,0.00,0.000000,,2013-01-30 16:12:00,
2013-01-30 07:42:00,-2.0,-7.0,-100.00,SE,128,0.0,2.0,78,0.00,,,0.00,0.000000,,2013-01-30 16:42:00,
2013-01-30 07:52:00,-2.0,-7.0,-100.00,SE,128,0.0,2.0,78,0.00,,,0.00,0.000000,,2013-01-30 16:52:00,
2013-01-30 08:02:00,-2.0,-7.0,-100.00,SE,128,0.0,2.0,78,0.00,,,0.00,0.000000,,2013-01-30 17:02:00,
2013-01-30 08:12:00,-2.0,-7.0,-100.00,SE,128,0.0,2.0,78,0.00,,,0.00,0.000000,,2013-01-30 17:12:00,
2013-01-30 08:33:00,-1.0,-6.0,-100.00,East,88,0.0,1.0,80,0.00,,,0.00,0.000000,,2013-01-30 17:33:00,
2013-01-30 08:43:00,-1.0,-6.0,-100.00,East,88,0.0,1.0,80,0.00,,,0.00,0.000000,,2013-01-30 17:43:00,
2013-01-30 08:53:00,-1.0,-6.0,-100.00,East,88,0.0,1.0,80,0.00,,,0.00,0.000000,,2013-01-30 17:53:00,
2013-01-30 09:02:00,-1.0,-6.0,-100.00,East,88,0.0,1.0,80,0.00,,,0.00,0.000000,,2013-01-30 18:02:00,
2013-01-30 09:12:00,-1.0,-6.0,-100.00,East,88,0.0,1.0,80,0.00,,,0.00,0.000000,,2013-01-30 18:12:00,
2013-01-30 10:43:00,1.0,-3.0,-100.00,ESE,118,0.0,1.0,81,-99.99,,,0.00,0.000000,,2013-01-30 19:43:00,
2013-01-30 10:53:00,1.0,-3.0,-100.00,ESE,118,0.0,1.0,81,-99.99,,,0.00,0.000000,,2013-01-30 19:53:00,
2013-01-30 11:02:00,1.0,-3.0,-100.00,ESE,118,0.0,1.0,81,-99.99,,,0.00,0.000000,,2013-01-30 20:02:00,
2013-01-30 11:11:00,1.0,-3.0,-100.00,ESE,118,0.0,1.0,81,-99.99,,,0.00,0.000000,,2013-01-30 20:11:00,
2013-01-30 11:42:00,1.0,-4.0,-100.00,ENE,63,0.0,0.0,78,0.00,,,0.00,4.000000,,2013-01-30 20:42:00,
2013-01-30 11:53:00,1.0,-4.0,-100.00,ENE,63,0.0,0.0,78,0.00,,,0.00,4.000000,,2013-01-30 20:53:00,
2013-01-30 12:03:00,1.0,-4.0,-100.00,ENE,63,0.0,0.0,78,0.00,,,0.00,4.000000,,2013-01-30 21:03:00,
2013-01-30 12:11:00,1.0,-4.0,-100.00,ENE,63,0.0,0.0,78,0.00,,,0.00,4.000000,,2013-01-30 21:11:00,
2013-01-30 12:43:00,2.0,-4.0,-100.00,NNE,25,0.0,1.0,75,0.00,,,0.00,11.000000,,2013-01-30 21:43:00,
2013-01-30 12:52:00,2.0,-4.0,-100.00,NNE,25,0.0,1.0,75,0.00,,,0.00,11.000000,,2013-01-30 21:52:00,
2013-01-30 13:02:00,2.0,-4.0,-100.00,NNE,25,0.0,1.0,75,0.00,,,0.00,11.000000,,2013-01-30 22:02:00,
2013-01-30 13:11:00,2.0,-4.0,-100.00,NNE,25,0.0,1.0,75,0.00,,,0.00,11.000000,,2013-01-30 22:11:00,
2013-01-30 13:42:00,4.0,-2.0,-100.00,ESE,104,0.0,3.0,76,0.00,,,0.00,12.000000,,2013-01-30 22:42:00,
2013-01-30 13:52:00,4.0,-2.0,-100.00,ESE,104,0.0,3.0,76,0.00,,,0.00,12.000000,,2013-01-30 22:52:00,
2013-01-30 14:02:00,4.0,-2.0,-100.00,ESE,104,0.0,3.0,76,0.00,,,0.00,12.000000,,2013-01-30 23:02:00,
2013-01-30 14:11:00,4.0,-2.0,-100.00,ESE,104,0.0,3.0,76,0.00,,,0.00,12.000000,,2013-01-30 23:11:00,
2013-01-30 14:33:00,6.0,-1.0,-100.00,SSE,164,0.0,1.0,72,0.00,,,0.00,13.000000,,2013-01-30 23:33:00,
2013-01-30 14:42:00,6.0,-1.0,-100.00,SSE,164,0.0,1.0,72,0.00,,,0.00,13.000000,,2013-01-30 23:42:00,
2013-01-30 14:52:00,6.0,-1.0,-100.00,SSE,164,0.0,1.0,72,0.00,,,0.00,13.000000,,2013-01-30 23:52:00,
2013-01-30 15:01:00,6.0,-1.0,-100.00,SSE,164,0.0,1.0,72,0.00,,,0.00,13.000000,,2013-01-31 00:01:00,
2013-01-30 15:11:00,6.0,-1.0,-100.00,SSE,164,0.0,1.0,72,0.00,,,0.00,13.000000,,2013-01-31 00:11:00,
2013-01-30 15:42:00,6.0,-1.0,-100.00,West,275,0.0,1.0,72,0.00,,,0.00,9.000000,,2013-01-31 00:42:00,
2013-01-30 15:53:00,6.0,-1.0,-100.00,West,275,0.0,1.0,72,0.00,,,0.00,9.000000,,2013-01-31 00:53:00,
2013-01-30 16:02:00,6.0,-1.0,-100.00,West,275,0.0,1.0,72,0.00,,,0.00,9.000000,,2013-01-31 01:02:00,
2013-01-30 16:11:00,6.0,-1.0,-100.00,West,275,0.0,1.0,72,0.00,,,0.00,9.000000,,2013-01-31 01:11:00,
2013-01-30 16:42:00,7.0,1.0,-100.00,SE,129,0.0,1.0,76,0.00,,,0.00,2.000000,,2013-01-31 01:42:00,
2013-01-30 16:52:00,7.0,1.0,-100.00,SE,129,0.0,1.0,76,0.00,,,0.00,2.000000,,2013-01-31 01:52:00,
2013-01-30 17:01:00,7.0,1.0,-100.00,SE,129,0.0,1.0,76,0.00,,,0.00,2.000000,,2013-01-31 02:01:00,
2013-01-30 17:11:00,7.0,1.0,-100.00,SE,129,0.0,1.0,76,0.00,,,0.00,2.000000,,2013-01-31 02:11:00,
2013-01-30 18:02:00,8.0,3.0,-100.00,South,180,0.0,3.0,80,0.00,,,0.00,0.000000,,2013-01-31 03:02:00,
2013-01-30 18:11:00,8.0,3.0,-100.00,South,180,0.0,3.0,80,0.00,,,0.00,0.000000,,2013-01-31 03:11:00,
2013-01-30 18:32:00,8.0,3.0,-100.00,SSW,209,0.0,0.0,80,0.00,,,0.00,0.000000,,2013-01-31 03:32:00,
2013-01-30 18:42:00,8.0,3.0,-100.00,SSW,209,0.0,0.0,80,0.00,,,0.00,0.000000,,2013-01-31 03:42:00,
2013-01-30 18:52:00,8.0,3.0,-100.00,SSW,209,0.0,0.0,80,0.00,,,0.00,0.000000,,2013-01-31 03:52:00,
2013-01-30 19:02:00,8.0,3.0,-100.00,SSW,209,0.0,0.0,80,0.00,,,0.00,0.000000,,2013-01-31 04:02:00,
2013-01-30 19:11:00,8.0,3.0,-100.00,SSW,209,0.0,0.0,80,0.00,,,0.00,0.000000,,2013-01-31 04:11:00,
2013-01-30 19:32:00,8.0,3.0,-100.00,NE,46,0.0,1.0,81,0.00,,,0.00,0.000000,,2013-01-31 04:32:00,
2013-01-30 19:42:00,8.0,3.0,-100.00,NE,46,0.0,1.0,81,0.00,,,0.00,0.000000,,2013-01-31 04:42:00,
2013-01-30 19:52:00,8.0,3.0,-100.00,NE,46,0.0,1.0,81,0.00,,,0.00,0.000000,,2013-01-31 04:52:00,
2013-01-30 20:03:00,8.0,3.0,-100.00,NE,46,0.0,1.0,81,0.00,,,0.00,0.000000,,2013-01-31 05:03:00,
2013-01-30 20:11:00,8.0,3.0,-100.00,NE,46,0.0,1.0,81,0.00,,,0.00,0.000000,,2013-01-31 05:11:00,
2013-01-30 20:42:00,9.0,6.0,-100.00,SE,136,0.0,1.0,86,0.00,,,0.00,0.000000,,2013-01-31 05:42:00,
2013-01-30 20:52:00,9.0,6.0,-100.00,SE,136,0.0,1.0,86,0.00,,,0.00,0.000000,,2013-01-31 05:52:00,
2013-01-30 21:01:00,9.0,6.0,-100.00,SE,136,0.0,1.0,86,0.00,,,0.00,0.000000,,2013-01-31 06:01:00,
2013-01-30 21:10:00,9.0,6.0,-100.00,SE,136,0.0,1.0,86,0.00,,,0.00,0.000000,,2013-01-31 06:10:00,